Terminal Aerodrome Forecast
Issued by NWS

Home | Current Version | Previous Version | Text Only | Print | Product List | Glossary On
Versions: 1 2 3 4 5 6 7 8 9 10 11 12 13 14 15 16 17 18 19 20
000
FTUS43 KMQT 301700
TAFSAW
TAF
KSAW 301735Z 3018/3118 35007KT P6SM VCSH BKN050
     FM302000 04005KT 6SM -SHRA BKN050
     FM310100 30005KT P6SM VCSH BKN070
     FM310600 VRB03KT P6SM SCT070
     FM311400 36007KT P6SM SCT100
      AMD LTD TO CLD VIS AND WIND 3102/3110=

USA.gov is the U.S. government's official web portal to all federal, state and local government web resources and services.